sensor_id;sensor_type;location;lat;lon;timestamp;P1;durP1;ratioP1;P2;durP2;ratioP2
80338;SDS011;69655;44.498;0.166;2023-06-26T00:02:27;6.63;;;3.90;;
80338;SDS011;69655;44.498;0.166;2023-06-26T00:07:58;7.10;;;3.83;;
80338;SDS011;69655;44.498;0.166;2023-06-26T00:13:33;6.83;;;3.67;;
80338;SDS011;69655;44.498;0.166;2023-06-26T00:19:05;7.67;;;3.50;;
80338;SDS011;69655;44.498;0.166;2023-06-26T00:24:37;6.33;;;3.00;;
80338;SDS011;69655;44.498;0.166;2023-06-26T00:30:12;6.87;;;3.30;;
80338;SDS011;69655;44.498;0.166;2023-06-26T00:35:43;6.87;;;3.00;;
80338;SDS011;69655;44.498;0.166;2023-06-26T00:41:17;6.23;;;2.50;;
80338;SDS011;69655;44.498;0.166;2023-06-26T00:46:49;6.17;;;2.43;;
80338;SDS011;69655;44.498;0.166;2023-06-26T00:52:22;4.70;;;2.10;;
80338;SDS011;69655;44.498;0.166;2023-06-26T00:57:56;7.57;;;2.40;;
80338;SDS011;69655;44.498;0.166;2023-06-26T01:03:29;4.53;;;2.10;;
80338;SDS011;69655;44.498;0.166;2023-06-26T01:09:02;5.93;;;2.80;;
80338;SDS011;69655;44.498;0.166;2023-06-26T01:14:34;7.73;;;2.50;;
80338;SDS011;69655;44.498;0.166;2023-06-26T01:20:07;6.13;;;2.17;;
80338;SDS011;69655;44.498;0.166;2023-06-26T01:31:13;5.50;;;2.10;;
80338;SDS011;69655;44.498;0.166;2023-06-26T01:36:46;5.57;;;2.07;;
80338;SDS011;69655;44.498;0.166;2023-06-26T01:42:19;5.47;;;2.20;;
80338;SDS011;69655;44.498;0.166;2023-06-26T01:47:53;6.43;;;2.10;;
80338;SDS011;69655;44.498;0.166;2023-06-26T01:53:27;6.17;;;2.00;;
80338;SDS011;69655;44.498;0.166;2023-06-26T01:58:59;4.67;;;2.00;;
80338;SDS011;69655;44.498;0.166;2023-06-26T02:04:33;6.90;;;2.30;;
80338;SDS011;69655;44.498;0.166;2023-06-26T02:10:06;4.77;;;2.23;;
80338;SDS011;69655;44.498;0.166;2023-06-26T02:15:39;6.27;;;2.37;;
80338;SDS011;69655;44.498;0.166;2023-06-26T02:21:12;6.03;;;2.10;;
80338;SDS011;69655;44.498;0.166;2023-06-26T02:26:45;5.40;;;1.80;;
80338;SDS011;69655;44.498;0.166;2023-06-26T02:32:17;4.37;;;1.80;;
80338;SDS011;69655;44.498;0.166;2023-06-26T02:43:22;5.77;;;1.87;;
80338;SDS011;69655;44.498;0.166;2023-06-26T02:48:58;6.87;;;2.20;;
80338;SDS011;69655;44.498;0.166;2023-06-26T02:54:29;5.30;;;2.10;;
80338;SDS011;69655;44.498;0.166;2023-06-26T03:00:02;6.70;;;1.97;;
80338;SDS011;69655;44.498;0.166;2023-06-26T03:05:35;4.83;;;1.77;;
80338;SDS011;69655;44.498;0.166;2023-06-26T03:11:09;5.53;;;2.40;;
80338;SDS011;69655;44.498;0.166;2023-06-26T03:16:40;4.87;;;2.00;;
80338;SDS011;69655;44.498;0.166;2023-06-26T03:22:14;3.87;;;1.80;;
80338;SDS011;69655;44.498;0.166;2023-06-26T03:27:47;5.70;;;2.20;;
80338;SDS011;69655;44.498;0.166;2023-06-26T03:33:19;3.73;;;1.73;;
80338;SDS011;69655;44.498;0.166;2023-06-26T03:38:52;4.03;;;2.00;;
80338;SDS011;69655;44.498;0.166;2023-06-26T03:44:24;4.50;;;1.87;;
80338;SDS011;69655;44.498;0.166;2023-06-26T03:49:57;7.00;;;2.03;;
80338;SDS011;69655;44.498;0.166;2023-06-26T03:55:30;4.70;;;2.07;;
80338;SDS011;69655;44.498;0.166;2023-06-26T04:01:03;9.37;;;2.30;;
80338;SDS011;69655;44.498;0.166;2023-06-26T04:06:36;6.10;;;2.23;;
80338;SDS011;69655;44.498;0.166;2023-06-26T04:12:09;4.90;;;1.80;;
80338;SDS011;69655;44.498;0.166;2023-06-26T04:17:41;5.67;;;2.20;;
80338;SDS011;69655;44.498;0.166;2023-06-26T04:23:15;4.73;;;1.83;;
80338;SDS011;69655;44.498;0.166;2023-06-26T04:28:48;5.67;;;1.97;;
80338;SDS011;69655;44.498;0.166;2023-06-26T04:34:22;5.17;;;2.00;;
80338;SDS011;69655;44.498;0.166;2023-06-26T04:39:55;6.80;;;2.43;;
80338;SDS011;69655;44.498;0.166;2023-06-26T04:45:29;5.40;;;2.00;;
80338;SDS011;69655;44.498;0.166;2023-06-26T04:51:02;7.23;;;2.30;;
80338;SDS011;69655;44.498;0.166;2023-06-26T04:56:35;7.17;;;2.40;;
80338;SDS011;69655;44.498;0.166;2023-06-26T05:02:08;4.50;;;2.13;;
80338;SDS011;69655;44.498;0.166;2023-06-26T05:07:41;6.33;;;2.20;;
80338;SDS011;69655;44.498;0.166;2023-06-26T05:13:14;6.10;;;2.03;;
80338;SDS011;69655;44.498;0.166;2023-06-26T05:18:46;6.73;;;2.17;;
80338;SDS011;69655;44.498;0.166;2023-06-26T05:24:20;5.10;;;2.30;;
80338;SDS011;69655;44.498;0.166;2023-06-26T05:29:52;5.63;;;2.50;;
80338;SDS011;69655;44.498;0.166;2023-06-26T05:35:26;4.30;;;2.13;;
80338;SDS011;69655;44.498;0.166;2023-06-26T05:46:32;9.70;;;2.80;;
80338;SDS011;69655;44.498;0.166;2023-06-26T05:52:04;5.40;;;2.07;;
80338;SDS011;69655;44.498;0.166;2023-06-26T05:57:36;9.57;;;2.90;;
80338;SDS011;69655;44.498;0.166;2023-06-26T06:03:09;5.93;;;2.30;;
80338;SDS011;69655;44.498;0.166;2023-06-26T06:08:43;6.40;;;2.50;;
80338;SDS011;69655;44.498;0.166;2023-06-26T06:14:14;6.30;;;2.20;;
80338;SDS011;69655;44.498;0.166;2023-06-26T06:19:49;6.67;;;1.90;;
80338;SDS011;69655;44.498;0.166;2023-06-26T06:25:21;8.27;;;2.50;;
80338;SDS011;69655;44.498;0.166;2023-06-26T06:36:27;8.73;;;2.60;;
80338;SDS011;69655;44.498;0.166;2023-06-26T06:42:00;10.47;;;3.20;;
80338;SDS011;69655;44.498;0.166;2023-06-26T06:47:33;6.17;;;2.23;;
80338;SDS011;69655;44.498;0.166;2023-06-26T06:53:07;7.70;;;2.30;;
80338;SDS011;69655;44.498;0.166;2023-06-26T06:58:40;10.80;;;2.33;;
80338;SDS011;69655;44.498;0.166;2023-06-26T07:04:14;7.13;;;2.23;;
80338;SDS011;69655;44.498;0.166;2023-06-26T07:15:20;4.67;;;1.77;;
80338;SDS011;69655;44.498;0.166;2023-06-26T07:20:53;8.90;;;2.20;;
80338;SDS011;69655;44.498;0.166;2023-06-26T07:26:26;6.70;;;2.10;;
80338;SDS011;69655;44.498;0.166;2023-06-26T07:31:59;5.23;;;1.70;;
80338;SDS011;69655;44.498;0.166;2023-06-26T07:37:32;6.27;;;1.90;;
80338;SDS011;69655;44.498;0.166;2023-06-26T07:43:04;7.13;;;2.23;;
80338;SDS011;69655;44.498;0.166;2023-06-26T07:48:37;6.90;;;1.60;;
80338;SDS011;69655;44.498;0.166;2023-06-26T07:54:11;6.63;;;1.93;;
80338;SDS011;69655;44.498;0.166;2023-06-26T07:59:44;5.57;;;1.80;;
80338;SDS011;69655;44.498;0.166;2023-06-26T08:05:17;4.03;;;1.70;;
80338;SDS011;69655;44.498;0.166;2023-06-26T08:16:23;8.70;;;2.77;;
80338;SDS011;69655;44.498;0.166;2023-06-26T08:21:56;5.43;;;2.10;;
80338;SDS011;69655;44.498;0.166;2023-06-26T08:27:29;5.50;;;2.13;;
80338;SDS011;69655;44.498;0.166;2023-06-26T08:33:02;5.97;;;2.10;;
80338;SDS011;69655;44.498;0.166;2023-06-26T08:38:35;6.97;;;2.20;;
80338;SDS011;69655;44.498;0.166;2023-06-26T08:44:08;6.57;;;1.80;;
80338;SDS011;69655;44.498;0.166;2023-06-26T08:49:45;5.07;;;1.50;;
80338;SDS011;69655;44.498;0.166;2023-06-26T08:55:15;9.83;;;2.60;;
80338;SDS011;69655;44.498;0.166;2023-06-26T09:00:48;6.70;;;2.20;;
80338;SDS011;69655;44.498;0.166;2023-06-26T09:06:21;6.73;;;2.30;;
80338;SDS011;69655;44.498;0.166;2023-06-26T09:11:52;5.53;;;2.10;;
80338;SDS011;69655;44.498;0.166;2023-06-26T09:17:25;14.27;;;3.00;;
80338;SDS011;69655;44.498;0.166;2023-06-26T09:22:57;5.77;;;2.17;;
80338;SDS011;69655;44.498;0.166;2023-06-26T09:28:31;6.17;;;2.73;;
80338;SDS011;69655;44.498;0.166;2023-06-26T09:34:03;4.53;;;2.20;;
80338;SDS011;69655;44.498;0.166;2023-06-26T09:39:36;4.10;;;1.93;;
80338;SDS011;69655;44.498;0.166;2023-06-26T09:50:41;7.10;;;2.40;;
80338;SDS011;69655;44.498;0.166;2023-06-26T09:56:16;4.80;;;2.33;;
80338;SDS011;69655;44.498;0.166;2023-06-26T10:01:46;5.87;;;2.60;;
80338;SDS011;69655;44.498;0.166;2023-06-26T10:07:18;6.33;;;2.50;;
80338;SDS011;69655;44.498;0.166;2023-06-26T10:12:51;6.67;;;2.73;;
80338;SDS011;69655;44.498;0.166;2023-06-26T10:18:23;4.87;;;2.27;;
80338;SDS011;69655;44.498;0.166;2023-06-26T10:23:56;4.57;;;2.13;;
80338;SDS011;69655;44.498;0.166;2023-06-26T10:29:29;5.73;;;2.70;;
80338;SDS011;69655;44.498;0.166;2023-06-26T10:35:02;5.57;;;1.90;;
80338;SDS011;69655;44.498;0.166;2023-06-26T10:40:42;4.30;;;1.97;;
80338;SDS011;69655;44.498;0.166;2023-06-26T10:46:08;5.63;;;2.20;;
80338;SDS011;69655;44.498;0.166;2023-06-26T10:51:44;4.47;;;2.17;;
80338;SDS011;69655;44.498;0.166;2023-06-26T10:57:16;4.73;;;2.07;;
80338;SDS011;69655;44.498;0.166;2023-06-26T11:02:47;5.20;;;2.00;;
80338;SDS011;69655;44.498;0.166;2023-06-26T11:08:20;5.10;;;1.90;;
80338;SDS011;69655;44.498;0.166;2023-06-26T11:13:51;4.50;;;1.90;;
80338;SDS011;69655;44.498;0.166;2023-06-26T11:19:26;4.33;;;1.83;;
80338;SDS011;69655;44.498;0.166;2023-06-26T11:24:59;5.07;;;1.60;;
80338;SDS011;69655;44.498;0.166;2023-06-26T11:30:33;5.07;;;2.13;;
80338;SDS011;69655;44.498;0.166;2023-06-26T11:41:39;4.70;;;1.90;;
80338;SDS011;69655;44.498;0.166;2023-06-26T11:47:12;5.70;;;1.90;;
80338;SDS011;69655;44.498;0.166;2023-06-26T11:52:44;3.70;;;1.77;;
80338;SDS011;69655;44.498;0.166;2023-06-26T11:58:17;4.83;;;1.83;;
80338;SDS011;69655;44.498;0.166;2023-06-26T12:03:50;4.33;;;1.70;;
80338;SDS011;69655;44.498;0.166;2023-06-26T12:09:23;4.70;;;1.97;;
80338;SDS011;69655;44.498;0.166;2023-06-26T12:14:57;3.90;;;1.77;;
80338;SDS011;69655;44.498;0.166;2023-06-26T12:20:29;6.57;;;2.00;;
80338;SDS011;69655;44.498;0.166;2023-06-26T12:31:36;4.23;;;1.97;;
80338;SDS011;69655;44.498;0.166;2023-06-26T12:37:08;5.17;;;1.73;;
80338;SDS011;69655;44.498;0.166;2023-06-26T12:42:40;5.17;;;1.90;;
80338;SDS011;69655;44.498;0.166;2023-06-26T12:48:12;3.33;;;1.60;;
80338;SDS011;69655;44.498;0.166;2023-06-26T12:53:44;2.97;;;1.47;;
80338;SDS011;69655;44.498;0.166;2023-06-26T12:59:17;2.93;;;1.40;;
80338;SDS011;69655;44.498;0.166;2023-06-26T13:04:49;5.07;;;1.47;;
80338;SDS011;69655;44.498;0.166;2023-06-26T13:10:21;2.30;;;1.37;;
80338;SDS011;69655;44.498;0.166;2023-06-26T13:15:55;4.70;;;1.80;;
80338;SDS011;69655;44.498;0.166;2023-06-26T13:21:28;3.97;;;1.60;;
80338;SDS011;69655;44.498;0.166;2023-06-26T13:27:01;2.53;;;1.20;;
80338;SDS011;69655;44.498;0.166;2023-06-26T13:32:33;2.67;;;1.40;;
80338;SDS011;69655;44.498;0.166;2023-06-26T13:38:07;3.90;;;1.60;;
80338;SDS011;69655;44.498;0.166;2023-06-26T13:43:39;4.70;;;1.53;;
80338;SDS011;69655;44.498;0.166;2023-06-26T13:49:13;3.07;;;1.33;;
80338;SDS011;69655;44.498;0.166;2023-06-26T13:54:45;2.13;;;1.13;;
80338;SDS011;69655;44.498;0.166;2023-06-26T14:00:18;6.33;;;1.70;;
80338;SDS011;69655;44.498;0.166;2023-06-26T14:05:50;3.20;;;1.50;;
80338;SDS011;69655;44.498;0.166;2023-06-26T14:11:22;5.33;;;1.60;;
80338;SDS011;69655;44.498;0.166;2023-06-26T14:16:55;4.43;;;1.73;;
80338;SDS011;69655;44.498;0.166;2023-06-26T14:22:28;4.47;;;1.70;;
80338;SDS011;69655;44.498;0.166;2023-06-26T14:28:01;5.47;;;1.60;;
80338;SDS011;69655;44.498;0.166;2023-06-26T14:33:33;4.83;;;1.70;;
80338;SDS011;69655;44.498;0.166;2023-06-26T14:39:06;4.53;;;1.50;;
80338;SDS011;69655;44.498;0.166;2023-06-26T14:44:37;4.50;;;1.60;;
80338;SDS011;69655;44.498;0.166;2023-06-26T14:50:10;4.07;;;1.63;;
80338;SDS011;69655;44.498;0.166;2023-06-26T14:55:42;3.90;;;1.60;;
80338;SDS011;69655;44.498;0.166;2023-06-26T15:06:47;4.90;;;1.63;;
80338;SDS011;69655;44.498;0.166;2023-06-26T15:12:19;3.90;;;1.90;;
80338;SDS011;69655;44.498;0.166;2023-06-26T15:17:54;4.33;;;1.77;;
80338;SDS011;69655;44.498;0.166;2023-06-26T15:23:26;4.00;;;1.80;;
80338;SDS011;69655;44.498;0.166;2023-06-26T15:28:58;7.73;;;1.70;;
80338;SDS011;69655;44.498;0.166;2023-06-26T15:34:32;5.30;;;1.90;;
80338;SDS011;69655;44.498;0.166;2023-06-26T15:40:05;3.90;;;1.70;;
80338;SDS011;69655;44.498;0.166;2023-06-26T15:45:37;4.57;;;2.07;;
80338;SDS011;69655;44.498;0.166;2023-06-26T15:51:12;4.77;;;2.10;;
80338;SDS011;69655;44.498;0.166;2023-06-26T15:56:44;7.43;;;2.30;;
80338;SDS011;69655;44.498;0.166;2023-06-26T16:02:16;5.40;;;2.13;;
80338;SDS011;69655;44.498;0.166;2023-06-26T16:07:49;3.90;;;1.97;;
80338;SDS011;69655;44.498;0.166;2023-06-26T16:13:21;6.97;;;2.20;;
80338;SDS011;69655;44.498;0.166;2023-06-26T16:18:54;4.17;;;2.00;;
80338;SDS011;69655;44.498;0.166;2023-06-26T16:24:28;6.07;;;2.30;;
80338;SDS011;69655;44.498;0.166;2023-06-26T16:30:01;4.33;;;2.30;;
80338;SDS011;69655;44.498;0.166;2023-06-26T16:35:34;5.77;;;2.27;;
80338;SDS011;69655;44.498;0.166;2023-06-26T16:41:07;5.73;;;2.13;;
80338;SDS011;69655;44.498;0.166;2023-06-26T16:46:39;4.50;;;2.37;;
80338;SDS011;69655;44.498;0.166;2023-06-26T16:52:11;5.93;;;2.67;;
80338;SDS011;69655;44.498;0.166;2023-06-26T16:57:43;5.37;;;2.60;;
80338;SDS011;69655;44.498;0.166;2023-06-26T17:03:15;5.90;;;2.60;;
80338;SDS011;69655;44.498;0.166;2023-06-26T17:08:47;4.63;;;2.47;;
80338;SDS011;69655;44.498;0.166;2023-06-26T17:14:19;5.57;;;2.30;;
80338;SDS011;69655;44.498;0.166;2023-06-26T17:19:53;6.97;;;2.63;;
80338;SDS011;69655;44.498;0.166;2023-06-26T17:25:27;5.00;;;2.60;;
80338;SDS011;69655;44.498;0.166;2023-06-26T17:31:00;6.37;;;3.10;;
80338;SDS011;69655;44.498;0.166;2023-06-26T17:36:31;6.47;;;2.50;;
80338;SDS011;69655;44.498;0.166;2023-06-26T17:42:05;5.73;;;2.80;;
80338;SDS011;69655;44.498;0.166;2023-06-26T17:47:39;5.20;;;2.60;;
80338;SDS011;69655;44.498;0.166;2023-06-26T17:53:10;6.93;;;2.93;;
80338;SDS011;69655;44.498;0.166;2023-06-26T17:58:43;6.67;;;3.20;;
80338;SDS011;69655;44.498;0.166;2023-06-26T18:04:14;5.80;;;3.47;;
80338;SDS011;69655;44.498;0.166;2023-06-26T18:09:49;6.77;;;3.70;;
80338;SDS011;69655;44.498;0.166;2023-06-26T18:15:21;7.07;;;3.37;;
80338;SDS011;69655;44.498;0.166;2023-06-26T18:20:53;6.60;;;3.57;;
80338;SDS011;69655;44.498;0.166;2023-06-26T18:37:32;8.03;;;4.43;;
80338;SDS011;69655;44.498;0.166;2023-06-26T18:48:36;11.37;;;4.23;;
80338;SDS011;69655;44.498;0.166;2023-06-26T18:54:09;9.17;;;4.10;;
80338;SDS011;69655;44.498;0.166;2023-06-26T18:59:41;8.17;;;4.87;;
80338;SDS011;69655;44.498;0.166;2023-06-26T19:05:14;7.57;;;4.67;;
80338;SDS011;69655;44.498;0.166;2023-06-26T19:10:46;11.17;;;5.10;;
80338;SDS011;69655;44.498;0.166;2023-06-26T19:16:19;7.03;;;4.50;;
80338;SDS011;69655;44.498;0.166;2023-06-26T19:27:25;7.20;;;4.20;;
80338;SDS011;69655;44.498;0.166;2023-06-26T19:32:59;8.83;;;4.47;;
80338;SDS011;69655;44.498;0.166;2023-06-26T19:38:32;6.67;;;4.27;;
80338;SDS011;69655;44.498;0.166;2023-06-26T19:44:04;8.63;;;4.80;;
80338;SDS011;69655;44.498;0.166;2023-06-26T19:49:37;7.67;;;4.47;;
80338;SDS011;69655;44.498;0.166;2023-06-26T19:55:11;6.17;;;3.73;;
80338;SDS011;69655;44.498;0.166;2023-06-26T20:00:45;9.67;;;4.23;;
80338;SDS011;69655;44.498;0.166;2023-06-26T20:06:17;7.67;;;4.20;;
80338;SDS011;69655;44.498;0.166;2023-06-26T20:11:51;6.57;;;3.77;;
80338;SDS011;69655;44.498;0.166;2023-06-26T20:17:23;7.57;;;4.17;;
80338;SDS011;69655;44.498;0.166;2023-06-26T20:22:56;6.90;;;4.10;;
80338;SDS011;69655;44.498;0.166;2023-06-26T20:28:29;7.90;;;4.20;;
80338;SDS011;69655;44.498;0.166;2023-06-26T20:34:00;7.93;;;4.57;;
80338;SDS011;69655;44.498;0.166;2023-06-26T20:39:34;8.67;;;4.47;;
80338;SDS011;69655;44.498;0.166;2023-06-26T20:45:07;8.23;;;4.63;;
80338;SDS011;69655;44.498;0.166;2023-06-26T20:50:39;8.53;;;4.40;;
80338;SDS011;69655;44.498;0.166;2023-06-26T20:56:11;6.93;;;4.10;;
80338;SDS011;69655;44.498;0.166;2023-06-26T21:01:44;9.80;;;4.53;;
80338;SDS011;69655;44.498;0.166;2023-06-26T21:07:16;11.17;;;5.03;;
80338;SDS011;69655;44.498;0.166;2023-06-26T21:12:49;7.37;;;3.23;;
80338;SDS011;69655;44.498;0.166;2023-06-26T21:18:21;7.67;;;3.37;;
80338;SDS011;69655;44.498;0.166;2023-06-26T21:23:54;5.80;;;3.07;;
80338;SDS011;69655;44.498;0.166;2023-06-26T21:29:26;6.87;;;2.87;;
80338;SDS011;69655;44.498;0.166;2023-06-26T21:34:59;5.17;;;2.40;;
80338;SDS011;69655;44.498;0.166;2023-06-26T21:40:31;4.77;;;2.23;;
80338;SDS011;69655;44.498;0.166;2023-06-26T21:46:04;5.40;;;2.20;;
80338;SDS011;69655;44.498;0.166;2023-06-26T21:51:37;4.73;;;2.23;;
80338;SDS011;69655;44.498;0.166;2023-06-26T21:57:09;6.20;;;2.50;;
80338;SDS011;69655;44.498;0.166;2023-06-26T22:02:41;4.33;;;2.13;;
80338;SDS011;69655;44.498;0.166;2023-06-26T22:08:13;6.07;;;2.20;;
80338;SDS011;69655;44.498;0.166;2023-06-26T22:13:46;6.23;;;2.27;;
80338;SDS011;69655;44.498;0.166;2023-06-26T22:19:20;5.37;;;2.47;;
80338;SDS011;69655;44.498;0.166;2023-06-26T22:24:53;6.07;;;2.60;;
80338;SDS011;69655;44.498;0.166;2023-06-26T22:30:25;5.47;;;2.13;;
80338;SDS011;69655;44.498;0.166;2023-06-26T22:35:58;4.33;;;2.00;;
80338;SDS011;69655;44.498;0.166;2023-06-26T22:41:30;4.50;;;1.80;;
80338;SDS011;69655;44.498;0.166;2023-06-26T22:47:03;5.83;;;1.90;;
80338;SDS011;69655;44.498;0.166;2023-06-26T22:58:07;6.53;;;1.90;;
80338;SDS011;69655;44.498;0.166;2023-06-26T23:03:39;4.23;;;1.83;;
80338;SDS011;69655;44.498;0.166;2023-06-26T23:09:11;5.37;;;1.53;;
80338;SDS011;69655;44.498;0.166;2023-06-26T23:14:43;4.57;;;1.60;;
80338;SDS011;69655;44.498;0.166;2023-06-26T23:20:17;4.40;;;1.43;;
80338;SDS011;69655;44.498;0.166;2023-06-26T23:31:21;4.00;;;1.37;;
80338;SDS011;69655;44.498;0.166;2023-06-26T23:36:54;4.97;;;1.70;;
80338;SDS011;69655;44.498;0.166;2023-06-26T23:42:26;3.70;;;1.20;;
80338;SDS011;69655;44.498;0.166;2023-06-26T23:47:59;2.73;;;1.30;;
80338;SDS011;69655;44.498;0.166;2023-06-26T23:53:31;4.87;;;1.30;;
80338;SDS011;69655;44.498;0.166;2023-06-26T23:59:03;4.77;;;1.40;;
